Terminal Aerodrome Forecast
Issued by NWS

Home | Current Version | Previous Version | Text Only | Print | Product List | Glossary On
Versions: 1 2 3 4 5 6 7 8 9 10 11 12 13 14 15 16 17 18 19 20 21 22 23 24 25 26 27 28 29
000
FTUS43 KGRR 012300
TAFLAN
TAF
KLAN 012340Z 0200/0224 15005KT P6SM SKC
     FM021200 15006KT 6SM HZ OVC035
     FM021400 16008KT 5SM BR VCTS OVC035CB
     FM021500 17009KT 4SM BR VCSH OVC025=

USA.gov is the U.S. government's official web portal to all federal, state and local government web resources and services.